Terminal Aerodrome Forecast
Issued by NWS Charleston, WV

Home | Current Version | Previous Version | Text Only | Print | Product List | Glossary On
Versions: 1 2 3 4 5 6 7 8 9 10 11 12 13 14 15 16 17 18 19 20 21 22 23 24 25 26 27 28
000
FTUS41 KRLX 271700
TAFCRW
TAF
KCRW 271720Z 2718/2818 VRB04KT P6SM FEW060
     FM272000 VRB03KT P6SM SCT045
     FM280200 00000KT P6SM BKN045
     FM280700 00000KT 6SM BR BKN035
     FM281000 00000KT 4SM BR BKN015
     FM281400 00000KT P6SM SCT015=

USA.gov is the U.S. government's official web portal to all federal, state and local government web resources and services.